Time;durP1;ratioP1;P1;durP2;ratioP2;P2;SDS_P1;SDS_P2;PMS_P1;PMS_P2;Temp;Humidity;BMP_temperature;BMP_pressure;BME280_temperature;BME280_humidity;BME280_pressure;Samples;Min_cycle;Max_cycle;Signal;HPM_P1;HPM_P2
2022/07/26 00:00:44;;;;;;;0.20;0.20;;;;;;;16.72;100.00;99266.22;5085314;28;20428;-63
2022/07/26 00:03:10;;;;;;;0.20;0.20;;;;;;;16.70;100.00;99258.44;5084985;28;20033;-63
2022/07/26 00:05:37;;;;;;;0.20;0.20;;;;;;;16.70;100.00;99261.06;5085127;28;20029;-63
2022/07/26 00:08:11;;;;;;;0.22;0.22;;;;;;;16.73;100.00;99254.78;5085204;28;20016;-63
2022/07/26 00:10:46;;;;;;;0.20;0.20;;;;;;;16.77;100.00;99260.72;5085421;28;20046;-63
2022/07/26 00:13:11;;;;;;;0.30;0.30;;;;;;;16.72;100.00;99263.59;5085462;28;20028;-63
2022/07/26 00:15:38;;;;;;;0.20;0.20;;;;;;;16.75;100.00;99262.56;5085125;28;20027;-63
2022/07/26 00:18:04;;;;;;;0.60;0.60;;;;;;;16.79;100.00;99256.25;5083547;28;20013;-63
2022/07/26 00:20:29;;;;;;;0.20;0.20;;;;;;;16.78;100.00;99260.66;5085394;28;20032;-63
2022/07/26 00:22:55;;;;;;;0.68;0.68;;;;;;;16.80;100.00;99248.31;5085207;28;20028;-65
2022/07/26 00:25:20;;;;;;;0.30;0.30;;;;;;;16.77;100.00;99253.72;5085472;28;20054;-62
2022/07/26 00:27:46;;;;;;;1.20;1.20;;;;;;;16.77;100.00;99251.09;5084758;28;20021;-62
2022/07/26 00:30:11;;;;;;;1.45;0.95;;;;;;;16.77;100.00;99245.84;5084855;28;20062;-63
2022/07/26 00:32:37;;;;;;;1.10;1.10;;;;;;;16.78;100.00;99246.69;5084981;28;20055;-63
2022/07/26 00:35:04;;;;;;;0.20;0.20;;;;;;;16.73;100.00;99239.94;5083736;28;20020;-63
2022/07/26 00:37:30;;;;;;;1.25;1.15;;;;;;;16.79;100.00;99243.97;5084890;28;20028;-63
2022/07/26 00:39:55;;;;;;;0.20;0.20;;;;;;;16.71;100.00;99230.44;5084939;28;20028;-62
2022/07/26 00:42:20;;;;;;;0.68;0.55;;;;;;;16.76;100.00;99232.84;5084757;28;20021;-63
2022/07/26 00:44:47;;;;;;;0.20;0.20;;;;;;;16.79;100.00;99232.69;5084859;28;20059;-62
2022/07/26 00:47:12;;;;;;;1.30;1.20;;;;;;;16.71;100.00;99226.03;5085297;28;20028;-63
2022/07/26 00:49:38;;;;;;;0.52;0.52;;;;;;;16.74;100.00;99227.69;5084855;28;20571;-63
2022/07/26 00:52:04;;;;;;;0.38;0.38;;;;;;;16.65;100.00;99221.13;5084978;28;20016;-63
2022/07/26 00:54:30;;;;;;;0.20;0.20;;;;;;;16.67;100.00;99226.28;5084467;28;20049;-63
2022/07/26 00:56:56;;;;;;;0.30;0.30;;;;;;;16.69;100.00;99230.50;5084901;28;20060;-63
2022/07/26 00:59:22;;;;;;;0.20;0.20;;;;;;;16.70;100.00;99220.88;5084831;28;20028;-63
2022/07/26 01:01:47;;;;;;;0.20;0.20;;;;;;;16.67;100.00;99218.44;5084865;28;20070;-62
2022/07/26 01:04:13;;;;;;;0.30;0.30;;;;;;;16.64;100.00;99214.22;5083132;28;20020;-63
2022/07/26 01:06:39;;;;;;;0.20;0.20;;;;;;;16.67;100.00;99221.06;5084476;28;20376;-63
2022/07/26 01:09:05;;;;;;;0.30;0.30;;;;;;;16.62;100.00;99225.69;5084549;28;20032;-62
2022/07/26 01:11:30;;;;;;;0.20;0.20;;;;;;;16.61;100.00;99222.25;5083501;28;20059;-63
2022/07/26 01:13:56;;;;;;;0.20;0.20;;;;;;;16.62;100.00;99223.91;5084813;28;20026;-62
2022/07/26 01:16:22;;;;;;;0.50;0.50;;;;;;;16.56;100.00;99219.88;5084867;28;20055;-62
2022/07/26 01:18:47;;;;;;;0.20;0.20;;;;;;;16.53;100.00;99217.41;5086032;28;20539;-63
2022/07/26 01:21:13;;;;;;;0.35;0.35;;;;;;;16.55;100.00;99225.19;5088229;28;20032;-63
2022/07/26 01:23:39;;;;;;;0.68;0.68;;;;;;;16.48;100.00;99215.00;5088219;28;20021;-63
2022/07/26 01:26:04;;;;;;;0.30;0.30;;;;;;;16.51;100.00;99218.38;5088525;28;20017;-63
2022/07/26 01:28:34;;;;;;;0.20;0.20;;;;;;;16.48;100.00;99215.00;5088342;28;20016;-63
2022/07/26 01:31:00;;;;;;;0.63;0.63;;;;;;;16.49;100.00;99205.38;5088232;28;20029;-63
2022/07/26 01:33:26;;;;;;;0.25;0.25;;;;;;;16.50;100.00;99208.84;5086768;28;20073;-62
2022/07/26 01:35:52;;;;;;;0.60;0.60;;;;;;;16.45;100.00;99214.34;5088094;28;20054;-63
2022/07/26 01:38:17;;;;;;;0.43;0.43;;;;;;;16.44;100.00;99210.00;5086944;28;20037;-63
2022/07/26 01:40:43;;;;;;;0.30;0.30;;;;;;;16.45;100.00;99209.91;5086682;28;20066;-63
2022/07/26 01:43:08;;;;;;;0.30;0.30;;;;;;;16.45;100.00;99204.69;5088266;28;20056;-63
2022/07/26 01:45:34;;;;;;;0.20;0.20;;;;;;;16.47;100.00;99205.47;5087979;28;20032;-63
2022/07/26 01:48:00;;;;;;;0.35;0.35;;;;;;;16.46;100.00;99205.53;5088281;28;20034;-63
2022/07/26 01:50:25;;;;;;;0.40;0.40;;;;;;;16.39;100.00;99197.16;5087861;28;20024;-63
2022/07/26 01:52:51;;;;;;;1.55;1.45;;;;;;;16.35;100.00;99191.25;5087555;28;20032;-63
2022/07/26 01:55:16;;;;;;;0.25;0.25;;;;;;;16.35;100.00;99196.47;5087641;28;20052;-63
2022/07/26 01:57:44;;;;;;;0.20;0.20;;;;;;;16.31;100.00;99192.31;5087664;28;20025;-63
2022/07/26 02:00:10;;;;;;;0.45;0.45;;;;;;;16.27;100.00;99190.78;5087558;28;20020;-63
2022/07/26 02:02:35;;;;;;;0.22;0.22;;;;;;;16.27;100.00;99189.94;5087640;28;20024;-63
2022/07/26 02:05:00;;;;;;;1.63;1.02;;;;;;;16.27;100.00;99196.03;5087861;28;20153;-63
2022/07/26 02:07:37;;;;;;;0.20;0.20;;;;;;;16.25;100.00;99204.88;5087357;28;20096;-63
2022/07/26 02:10:03;;;;;;;2.28;0.93;;;;;;;16.25;100.00;99190.00;5087689;28;20076;-63
2022/07/26 02:12:29;;;;;;;0.20;0.20;;;;;;;16.26;100.00;99194.34;5087616;28;20029;-63
2022/07/26 02:14:54;;;;;;;0.20;0.20;;;;;;;16.27;100.00;99197.78;5087577;28;20028;-63
2022/07/26 02:17:20;;;;;;;0.20;0.20;;;;;;;16.25;100.00;99191.78;5087293;28;20032;-63
2022/07/26 02:19:45;;;;;;;0.20;0.20;;;;;;;16.27;100.00;99189.94;5087159;28;20033;-63
2022/07/26 02:22:11;;;;;;;0.70;0.63;;;;;;;16.27;100.00;99192.56;5087315;28;20028;-63
2022/07/26 02:24:36;;;;;;;0.52;0.52;;;;;;;16.24;100.00;99196.19;5086968;28;20050;-63
2022/07/26 02:27:03;;;;;;;0.43;0.43;;;;;;;16.22;100.00;99192.78;5087114;28;20036;-63
2022/07/26 02:29:29;;;;;;;0.38;0.38;;;;;;;16.30;100.00;99193.25;5085988;28;20499;-63
2022/07/26 02:31:55;;;;;;;0.20;0.20;;;;;;;16.27;100.00;99190.78;5086766;28;20032;-63
2022/07/26 02:34:20;;;;;;;0.20;0.20;;;;;;;16.22;100.00;99191.03;5087251;28;20021;-63
2022/07/26 02:36:46;;;;;;;3.45;0.90;;;;;;;16.28;100.00;99191.66;5087131;28;20135;-63
2022/07/26 02:39:12;;;;;;;0.20;0.20;;;;;;;16.27;100.00;99198.66;5086960;28;20074;-63
2022/07/26 02:41:37;;;;;;;0.30;0.30;;;;;;;16.26;100.00;99201.34;5087237;28;20073;-63
2022/07/26 02:44:03;;;;;;;0.45;0.45;;;;;;;16.22;100.00;99195.41;5086813;28;20052;-63
2022/07/26 02:46:29;;;;;;;0.30;0.30;;;;;;;16.22;100.00;99190.19;5086667;28;20038;-63
2022/07/26 02:48:54;;;;;;;0.20;0.20;;;;;;;16.22;100.00;99188.41;5086921;28;20103;-63
2022/07/26 02:51:19;;;;;;;0.20;0.20;;;;;;;16.21;100.00;99188.50;5086737;28;20088;-63
2022/07/26 02:53:45;;;;;;;0.47;0.47;;;;;;;16.17;100.00;99185.19;5086682;28;20085;-63
2022/07/26 02:56:10;;;;;;;52.97;3.55;;;;;;;16.18;100.00;99188.66;5086513;28;20484;-63
2022/07/26 02:58:36;;;;;;;0.20;0.20;;;;;;;16.15;100.00;99191.44;5086378;28;20094;-63
2022/07/26 03:01:01;;;;;;;0.20;0.20;;;;;;;16.16;100.00;99187.88;5086266;28;20024;-63
2022/07/26 03:03:27;;;;;;;0.20;0.20;;;;;;;16.15;100.00;99186.19;5086733;28;20054;-63
2022/07/26 03:05:52;;;;;;;0.20;0.20;;;;;;;16.14;100.00;99194.94;5086335;28;20109;-63
2022/07/26 03:08:17;;;;;;;0.20;0.20;;;;;;;16.09;100.00;99192.56;5085211;28;20107;-63
2022/07/26 03:10:43;;;;;;;0.30;0.30;;;;;;;16.14;100.00;99194.94;5086389;28;20028;-63
2022/07/26 03:13:09;;;;;;;0.20;0.20;;;;;;;16.13;100.00;99188.03;5086192;28;20031;-63
2022/07/26 03:15:34;;;;;;;0.40;0.40;;;;;;;16.08;100.00;99198.75;5086270;28;20033;-63
2022/07/26 03:18:00;;;;;;;0.20;0.20;;;;;;;16.10;100.00;99195.09;5086281;28;20020;-63
2022/07/26 03:20:25;;;;;;;0.30;0.30;;;;;;;16.10;100.00;99192.50;5086176;28;20020;-63
2022/07/26 03:22:50;;;;;;;0.20;0.20;;;;;;;16.09;100.00;99192.56;5085987;28;20050;-63
2022/07/26 03:25:16;;;;;;;0.20;0.20;;;;;;;16.14;100.00;99200.19;5086133;28;20094;-63
2022/07/26 03:27:42;;;;;;;0.20;0.20;;;;;;;16.12;100.00;99199.44;5086394;28;20027;-63
2022/07/26 03:30:08;;;;;;;7.13;1.38;;;;;;;16.11;100.00;99203.81;5086049;28;20035;-63
2022/07/26 03:32:33;;;;;;;0.20;0.20;;;;;;;16.10;100.00;99202.97;5086016;28;20251;-63
2022/07/26 03:34:58;;;;;;;0.52;0.52;;;;;;;16.14;99.97;99201.03;5086304;28;20028;-63
2022/07/26 03:37:24;;;;;;;0.20;0.20;;;;;;;16.08;100.00;99196.13;5085984;28;20016;-63
2022/07/26 03:39:50;;;;;;;0.28;0.28;;;;;;;16.06;98.46;99203.19;5085872;28;20027;-63
2022/07/26 03:42:16;;;;;;;0.20;0.20;;;;;;;16.06;98.00;99203.19;5085833;28;20028;-63
2022/07/26 03:44:41;;;;;;;0.20;0.20;;;;;;;16.03;96.72;99204.22;5085560;28;20024;-63
2022/07/26 03:47:07;;;;;;;0.20;0.20;;;;;;;15.97;95.45;99204.50;5085613;28;20025;-63
2022/07/26 03:49:32;;;;;;;0.20;0.20;;;;;;;15.97;95.01;99194.03;5085618;28;20086;-62
2022/07/26 03:51:57;;;;;;;0.20;0.20;;;;;;;15.96;94.79;99203.63;5085342;28;20025;-62
2022/07/26 03:54:23;;;;;;;0.20;0.20;;;;;;;15.90;93.88;99205.72;5085064;28;20048;-65
2022/07/26 03:56:48;;;;;;;0.28;0.28;;;;;;;15.93;94.61;99202.94;5085159;28;20078;-64
2022/07/26 03:59:14;;;;;;;0.20;0.20;;;;;;;15.85;95.48;99191.09;5085587;28;20020;-64
2022/07/26 04:01:41;;;;;;;0.20;0.20;;;;;;;15.85;94.23;99206.78;5085606;28;20105;-64
2022/07/26 04:04:14;;;;;;;0.20;0.20;;;;;;;15.72;93.51;99193.47;5085750;28;20054;-64
2022/07/26 04:06:40;;;;;;;0.20;0.20;;;;;;;15.74;93.60;99201.25;5085506;28;20024;-64
2022/07/26 04:09:06;;;;;;;0.25;0.25;;;;;;;15.69;93.50;99201.47;5085471;28;20028;-64
2022/07/26 04:11:33;;;;;;;0.30;0.30;;;;;;;15.65;93.74;99210.41;5085730;28;20509;-64
2022/07/26 04:13:59;;;;;;;0.20;0.20;;;;;;;15.61;93.70;99220.16;5085415;28;20031;-64
2022/07/26 04:16:25;;;;;;;0.20;0.20;;;;;;;15.60;93.77;99202.78;5085048;28;20036;-64
2022/07/26 04:18:50;;;;;;;0.20;0.20;;;;;;;15.55;91.20;99217.00;5085489;28;20028;-64
2022/07/26 04:21:16;;;;;;;0.73;0.73;;;;;;;15.49;90.90;99220.75;5085640;28;20110;-64
2022/07/26 04:23:41;;;;;;;0.20;0.20;;;;;;;15.48;90.43;99225.13;5084893;28;20031;-64
2022/07/26 04:26:06;;;;;;;0.20;0.20;;;;;;;15.44;90.07;99214.91;5084850;28;20103;-64
2022/07/26 04:28:32;;;;;;;0.20;0.20;;;;;;;15.47;88.65;99218.22;5085040;28;20028;-64
2022/07/26 04:30:58;;;;;;;0.20;0.20;;;;;;;15.53;88.70;99216.25;5085150;28;20043;-64
2022/07/26 04:33:24;;;;;;;2.97;1.55;;;;;;;15.58;90.85;99230.78;5084969;28;20029;-64
2022/07/26 04:35:50;;;;;;;0.20;0.20;;;;;;;15.57;89.59;99233.47;5085502;28;20017;-64
2022/07/26 04:38:15;;;;;;;0.20;0.20;;;;;;;15.55;88.76;99233.53;5084889;28;20508;-64
2022/07/26 04:40:40;;;;;;;0.20;0.20;;;;;;;15.54;87.95;99236.22;5085343;28;20080;-64
2022/07/26 04:43:06;;;;;;;0.20;0.20;;;;;;;15.54;86.03;99231.00;5084749;28;20036;-64
2022/07/26 04:45:31;;;;;;;0.30;0.30;;;;;;;15.53;86.33;99219.69;5084944;28;20028;-64
2022/07/26 04:47:57;;;;;;;0.30;0.30;;;;;;;15.68;87.30;99236.41;5084803;28;20103;-65
2022/07/26 04:50:23;;;;;;;0.20;0.20;;;;;;;15.63;85.88;99229.69;5084597;28;20024;-64
2022/07/26 04:52:50;;;;;;;0.20;0.20;;;;;;;15.76;86.46;99249.13;5084848;28;20025;-64
2022/07/26 04:55:17;;;;;;;0.20;0.20;;;;;;;15.75;84.76;99242.19;5088473;28;20052;-64
2022/07/26 04:57:43;;;;;;;0.30;0.30;;;;;;;15.80;84.47;99234.13;5088995;28;20017;-64
2022/07/26 05:00:11;;;;;;;0.28;0.28;;;;;;;15.77;84.50;99229.88;5088748;28;20047;-64
2022/07/26 05:02:37;;;;;;;0.73;0.73;;;;;;;15.77;84.29;99235.09;5088510;28;20350;-64
2022/07/26 05:05:04;;;;;;;2.15;1.95;;;;;;;15.70;83.87;99237.16;5088989;28;20027;-64
2022/07/26 05:07:42;;;;;;;0.30;0.30;;;;;;;15.70;84.20;99236.34;5088715;28;20028;-64
2022/07/26 05:10:08;;;;;;;0.20;0.20;;;;;;;15.75;86.44;99236.94;5089076;28;20059;-64
2022/07/26 05:12:34;;;;;;;0.20;0.20;;;;;;;15.71;85.45;99235.41;5088401;28;20350;-64
2022/07/26 05:14:59;;;;;;;0.20;0.20;;;;;;;15.70;85.34;99229.31;5088378;28;20050;-64
2022/07/26 05:17:25;;;;;;;0.20;0.20;;;;;;;15.64;83.72;99234.03;5088276;28;20253;-64
2022/07/26 05:19:50;;;;;;;0.30;0.30;;;;;;;15.65;84.42;99240.94;5088421;28;20028;-64
2022/07/26 05:22:15;;;;;;;2.05;1.95;;;;;;;15.73;84.21;99244.03;5088423;28;20085;-64
2022/07/26 05:24:41;;;;;;;0.20;0.20;;;;;;;15.86;82.92;99239.06;5088406;28;20088;-64
2022/07/26 05:27:06;;;;;;;0.20;0.20;;;;;;;15.89;82.88;99238.06;5088390;28;20028;-64
2022/07/26 05:29:31;;;;;;;0.30;0.30;;;;;;;15.84;82.96;99235.66;5088377;28;20033;-64
2022/07/26 05:31:56;;;;;;;0.20;0.20;;;;;;;15.82;82.58;99232.25;5088517;28;20104;-64
2022/07/26 05:34:23;;;;;;;0.20;0.20;;;;;;;15.83;81.75;99231.38;5088204;28;20024;-64
2022/07/26 05:36:49;;;;;;;0.20;0.20;;;;;;;15.85;81.61;99232.97;5088438;28;20026;-65
2022/07/26 05:39:15;;;;;;;0.60;0.60;;;;;;;15.77;79.83;99244.75;5088557;28;20050;-64
2022/07/26 05:41:40;;;;;;;0.43;0.43;;;;;;;15.78;80.64;99246.44;5088233;28;20032;-64
2022/07/26 05:44:05;;;;;;;0.20;0.20;;;;;;;15.85;83.35;99246.06;5088184;28;20540;-64
2022/07/26 05:46:31;;;;;;;0.20;0.20;;;;;;;15.88;80.85;99242.44;5088057;28;20031;-64
2022/07/26 05:48:56;;;;;;;0.22;0.22;;;;;;;15.92;82.95;99250.97;5087829;28;20098;-64
2022/07/26 05:51:21;;;;;;;0.20;0.20;;;;;;;15.89;82.98;99253.75;5087821;28;20020;-65
2022/07/26 05:53:47;;;;;;;0.20;0.20;;;;;;;15.87;84.03;99253.81;5087490;28;20155;-64
2022/07/26 05:56:12;;;;;;;0.20;0.20;;;;;;;15.79;81.76;99258.59;5087997;28;20052;-64
2022/07/26 05:58:38;;;;;;;0.20;0.20;;;;;;;15.80;83.01;99265.53;5087664;28;20024;-65
2022/07/26 06:01:03;;;;;;;0.20;0.20;;;;;;;15.78;81.06;99263.00;5087539;28;20024;-64
2022/07/26 06:03:30;;;;;;;0.20;0.20;;;;;;;15.77;80.40;99266.50;5087830;28;20054;-64
2022/07/26 06:05:57;;;;;;;0.20;0.20;;;;;;;15.80;80.84;99266.34;5087707;28;20028;-64
2022/07/26 06:08:26;;;;;;;0.20;0.20;;;;;;;15.64;78.95;99268.03;5087627;28;20076;-65
2022/07/26 06:10:53;;;;;;;0.20;0.20;;;;;;;15.73;80.58;99263.19;5087727;28;20021;-64
2022/07/26 06:13:18;;;;;;;0.30;0.30;;;;;;;15.77;79.13;99274.34;5087583;28;20079;-65
2022/07/26 06:15:44;;;;;;;0.20;0.20;;;;;;;15.80;79.98;99268.16;5087307;28;20029;-65
2022/07/26 06:18:11;;;;;;;0.30;0.30;;;;;;;15.83;77.38;99276.66;5087746;28;20020;-64
2022/07/26 06:20:44;;;;;;;0.20;0.20;;;;;;;15.89;80.04;99277.31;5087552;28;20088;-65
2022/07/26 06:23:10;;;;;;;0.60;0.60;;;;;;;15.85;78.45;99271.38;5087532;28;20028;-65
2022/07/26 06:25:36;;;;;;;0.20;0.20;;;;;;;15.88;77.53;99275.63;5086841;28;20473;-65
2022/07/26 06:28:03;;;;;;;0.20;0.20;;;;;;;16.00;78.32;99272.44;5087301;28;20028;-64
2022/07/26 06:30:28;;;;;;;0.20;0.20;;;;;;;16.15;80.22;99280.44;5087254;28;20033;-64
2022/07/26 06:32:54;;;;;;;0.20;0.20;;;;;;;16.27;79.94;99284.22;5087475;28;20079;-64
2022/07/26 06:35:19;;;;;;;0.20;0.20;;;;;;;16.27;81.07;99274.59;5085878;28;20024;-64
2022/07/26 06:37:44;;;;;;;0.20;0.20;;;;;;;16.42;82.06;99279.97;5086679;28;20047;-64
2022/07/26 06:40:10;;;;;;;0.20;0.20;;;;;;;16.36;80.93;99273.25;5086593;28;20043;-64
2022/07/26 06:42:37;;;;;;;0.30;0.30;;;;;;;16.45;80.66;99288.50;5086911;28;20040;-65
2022/07/26 06:45:03;;;;;;;0.20;0.20;;;;;;;16.45;80.49;99285.06;5086745;28;20085;-64
2022/07/26 06:47:28;;;;;;;0.20;0.20;;;;;;;16.31;80.41;99278.75;5087024;28;20035;-65
2022/07/26 06:49:54;;;;;;;0.20;0.20;;;;;;;16.28;80.87;99284.13;5086721;28;20020;-63
2022/07/26 06:52:20;;;;;;;0.20;0.20;;;;;;;16.31;82.64;99288.38;5086980;28;20026;-64
2022/07/26 06:54:46;;;;;;;0.20;0.20;;;;;;;16.28;82.22;99294.59;5086407;28;20070;-63
2022/07/26 06:57:12;;;;;;;0.20;0.20;;;;;;;16.23;81.39;99284.38;5086697;28;20439;-63
2022/07/26 06:59:37;;;;;;;0.20;0.20;;;;;;;16.08;78.06;99301.69;5086661;28;20031;-63
2022/07/26 07:02:03;;;;;;;0.20;0.20;;;;;;;16.06;78.61;99303.53;5087000;28;20372;-64
2022/07/26 07:04:30;;;;;;;2.05;1.55;;;;;;;16.27;80.36;99298.16;5086291;28;20025;-63
2022/07/26 07:07:01;;;;;;;1.65;1.58;;;;;;;16.44;79.96;99306.91;5086662;28;20046;-63
2022/07/26 07:09:29;;;;;;;0.20;0.20;;;;;;;16.41;78.42;99294.84;5086253;28;20037;-64
2022/07/26 07:11:55;;;;;;;0.20;0.20;;;;;;;16.42;78.98;99299.13;5086332;28;20058;-63
2022/07/26 07:14:20;;;;;;;0.20;0.20;;;;;;;16.60;80.52;99304.38;5086399;28;20017;-64
2022/07/26 07:16:45;;;;;;;0.20;0.20;;;;;;;16.79;82.19;99314.75;5085585;28;20094;-63
2022/07/26 07:19:11;;;;;;;0.20;0.20;;;;;;;16.88;80.30;99300.31;5086108;28;20020;-64
2022/07/26 07:21:36;;;;;;;0.30;0.30;;;;;;;16.92;76.66;99299.22;5086117;28;20039;-64
2022/07/26 07:24:02;;;;;;;0.20;0.20;;;;;;;16.96;75.77;99313.03;5086187;28;20052;-64
2022/07/26 07:26:28;;;;;;;0.20;0.20;;;;;;;17.23;75.91;99309.88;5086277;28;20089;-64
2022/07/26 07:28:53;;;;;;;0.20;0.20;;;;;;;17.50;75.55;99301.44;5086306;28;20123;-63
2022/07/26 07:31:18;;;;;;;0.20;0.20;;;;;;;17.55;73.27;99312.53;5086061;28;20541;-63
2022/07/26 07:33:43;;;;;;;0.20;0.20;;;;;;;17.51;73.54;99312.78;5085895;28;20039;-63
2022/07/26 07:36:09;;;;;;;0.20;0.20;;;;;;;17.80;72.47;99319.03;5086007;28;20079;-63
2022/07/26 07:38:34;;;;;;;0.20;0.20;;;;;;;18.15;75.85;99298.75;5084612;28;20044;-63
2022/07/26 07:41:00;;;;;;;0.20;0.20;;;;;;;18.29;74.56;99318.97;5086070;28;20492;-63
2022/07/26 07:43:25;;;;;;;0.30;0.30;;;;;;;18.28;72.07;99322.53;5085548;28;20035;-63
2022/07/26 07:45:50;;;;;;;0.20;0.20;;;;;;;18.29;68.30;99330.31;5085418;28;20024;-63
2022/07/26 07:48:16;;;;;;;0.20;0.20;;;;;;;18.55;72.23;99319.19;5085807;28;20027;-63
2022/07/26 07:50:41;;;;;;;0.20;0.20;;;;;;;18.75;72.95;99327.69;5085546;28;20025;-64
2022/07/26 07:53:07;;;;;;;0.20;0.20;;;;;;;19.42;72.77;99323.66;5085467;28;20036;-64
2022/07/26 07:55:32;;;;;;;0.20;0.20;;;;;;;19.79;71.38;99320.47;5085659;28;20048;-63
2022/07/26 07:57:58;;;;;;;0.20;0.20;;;;;;;19.60;67.78;99326.91;5085346;28;20028;-64
2022/07/26 08:00:24;;;;;;;0.20;0.20;;;;;;;19.59;66.57;99330.47;5085554;28;20024;-63
2022/07/26 08:02:49;;;;;;;0.20;0.20;;;;;;;19.52;63.43;99313.41;5085261;28;20446;-64
2022/07/26 08:05:15;;;;;;;0.20;0.20;;;;;;;19.31;66.82;99321.72;5085314;28;20029;-63
2022/07/26 08:07:40;;;;;;;0.20;0.20;;;;;;;19.05;67.77;99322.34;5083932;28;20020;-64
2022/07/26 08:10:06;;;;;;;0.52;0.52;;;;;;;18.81;69.44;99327.31;5085736;28;20052;-64
2022/07/26 08:12:31;;;;;;;0.20;0.20;;;;;;;18.94;72.82;99328.28;5085373;28;20063;-63
2022/07/26 08:14:57;;;;;;;0.20;0.20;;;;;;;19.27;65.74;99325.47;5085285;28;20061;-64
2022/07/26 08:17:22;;;;;;;0.20;0.20;;;;;;;19.18;63.51;99322.47;5085262;28;20017;-64
2022/07/26 08:19:47;;;;;;;0.20;0.20;;;;;;;18.89;63.26;99326.84;5085375;28;20025;-64
2022/07/26 08:22:13;;;;;;;3.45;1.52;;;;;;;18.64;64.92;99331.78;5085472;28;20115;-64
2022/07/26 08:24:39;;;;;;;0.20;0.20;;;;;;;18.94;62.34;99332.69;5084778;28;20043;-64
2022/07/26 08:27:04;;;;;;;0.20;0.20;;;;;;;19.96;64.84;99324.63;5085147;28;20021;-64
2022/07/26 08:29:30;;;;;;;0.20;0.20;;;;;;;20.36;63.10;99312.44;5084523;28;20017;-64
2022/07/26 08:31:55;;;;;;;0.20;0.20;;;;;;;20.01;59.62;99321.69;5084800;28;20028;-64
2022/07/26 08:34:21;;;;;;;0.20;0.20;;;;;;;19.96;60.70;99336.94;5085096;28;20052;-64
2022/07/26 08:36:46;;;;;;;0.20;0.20;;;;;;;19.97;62.61;99333.41;5084943;28;20035;-64
2022/07/26 08:39:12;;;;;;;0.20;0.20;;;;;;;20.04;60.89;99330.28;5085259;28;20502;-64
2022/07/26 08:41:39;;;;;;;1.17;1.17;;;;;;;19.98;60.18;99337.72;5085274;28;20085;-64
2022/07/26 08:44:10;;;;;;;0.30;0.30;;;;;;;19.65;62.10;99329.28;5085049;28;20028;-64
2022/07/26 08:46:37;;;;;;;0.20;0.20;;;;;;;19.71;65.82;99335.91;5085070;28;20051;-63
2022/07/26 08:49:06;;;;;;;0.20;0.20;;;;;;;19.48;64.27;99343.47;5085133;28;20024;-64
2022/07/26 08:51:32;;;;;;;0.20;0.20;;;;;;;19.43;64.40;99346.41;5084743;28;20050;-64
2022/07/26 08:54:00;;;;;;;0.20;0.20;;;;;;;19.18;61.81;99346.16;5084611;28;20094;-64
2022/07/26 08:56:26;;;;;;;0.20;0.20;;;;;;;19.28;64.25;99346.41;5084927;28;20025;-64
2022/07/26 08:58:52;;;;;;;0.17;0.17;;;;;;;19.19;64.09;99352.25;5084793;28;20074;-64
2022/07/26 09:01:17;;;;;;;2.85;0.52;;;;;;;19.18;63.09;99354.06;5084538;28;20025;-64
2022/07/26 09:03:44;;;;;;;0.20;0.20;;;;;;;19.29;64.90;99355.16;5084800;28;20035;-64
2022/07/26 09:06:20;;;;;;;0.20;0.20;;;;;;;19.13;63.90;99350.84;5084951;28;20025;-64
2022/07/26 09:08:49;;;;;;;0.20;0.20;;;;;;;19.47;63.32;99368.13;5085055;28;20029;-64
2022/07/26 09:11:23;;;;;;;0.20;0.20;;;;;;;19.69;60.91;99354.44;5084682;28;20408;-64
2022/07/26 09:13:57;;;;;;;0.90;0.90;;;;;;;19.29;58.71;99366.53;5084867;28;20051;-64
2022/07/26 09:16:23;;;;;;;0.20;0.20;;;;;;;19.02;61.73;99361.16;5084590;28;20020;-64
2022/07/26 09:18:48;;;;;;;0.20;0.20;;;;;;;18.80;61.91;99370.34;5084354;28;20040;-64
2022/07/26 09:21:30;;;;;;;0.20;0.20;;;;;;;19.02;61.11;99371.66;5084609;28;20032;-64
2022/07/26 09:23:57;;;;;;;0.82;0.82;;;;;;;19.03;62.71;99370.72;5084938;28;20121;-65
2022/07/26 09:26:22;;;;;;;0.20;0.20;;;;;;;19.43;63.70;99375.34;5084759;28;20095;-65
2022/07/26 09:29:08;;;;;;;0.20;0.20;;;;;;;19.25;60.92;99362.38;5084719;28;20020;-65
2022/07/26 09:31:35;;;;;;;0.20;0.20;;;;;;;18.92;63.25;99368.75;5084356;28;20537;-65
2022/07/26 09:34:01;;;;;;;0.20;0.20;;;;;;;18.79;62.32;99376.50;5084578;28;20029;-65
2022/07/26 09:36:27;;;;;;;0.20;0.20;;;;;;;18.64;60.70;99380.91;5084332;28;20031;-65
2022/07/26 09:38:57;;;;;;;0.20;0.20;;;;;;;18.41;62.02;99373.44;5084714;28;20027;-65
2022/07/26 09:41:28;;;;;;;0.20;0.20;;;;;;;18.28;64.25;99391.69;5088164;28;20020;-65
2022/07/26 09:43:59;;;;;;;0.20;0.20;;;;;;;18.09;61.70;99384.81;5086673;28;20078;-65
2022/07/26 09:46:26;;;;;;;0.20;0.20;;;;;;;17.86;63.49;99370.34;5088296;28;20025;-64
2022/07/26 09:48:56;;;;;;;0.20;0.20;;;;;;;18.53;65.79;99392.06;5086550;28;20088;-65
2022/07/26 09:51:41;;;;;;;0.20;0.20;;;;;;;18.78;62.85;99385.34;5088007;28;20016;-65
2022/07/26 09:54:08;;;;;;;0.20;0.20;;;;;;;19.06;60.11;99386.31;5087261;28;20121;-65
2022/07/26 09:56:44;;;;;;;0.20;0.20;;;;;;;19.33;57.20;99377.69;5087614;28;20077;-65
2022/07/26 09:59:13;;;;;;;0.20;0.20;;;;;;;19.15;60.56;99375.25;5087935;28;20035;-65
2022/07/26 10:01:39;;;;;;;0.22;0.22;;;;;;;18.67;57.41;99396.50;5087245;28;20446;-65
2022/07/26 10:04:04;;;;;;;0.20;0.20;;;;;;;18.34;58.95;99390.47;5088016;28;20020;-65
2022/07/26 10:06:31;;;;;;;0.35;0.35;;;;;;;18.01;60.71;99396.66;5087689;28;20032;-65
2022/07/26 10:08:57;;;;;;;0.20;0.20;;;;;;;17.58;61.71;99385.00;5087390;28;20027;-64
2022/07/26 10:11:26;;;;;;;0.20;0.20;;;;;;;17.33;64.11;99387.13;5087757;28;20021;-64
2022/07/26 10:13:51;;;;;;;0.20;0.20;;;;;;;17.13;66.94;99397.84;5087647;28;20088;-64
2022/07/26 10:16:31;;;;;;;0.20;0.20;;;;;;;17.05;68.51;99399.06;5087124;28;20107;-64
2022/07/26 10:18:57;;;;;;;0.20;0.20;;;;;;;17.42;66.62;99400.69;5087628;28;20029;-64
2022/07/26 10:21:24;;;;;;;0.20;0.20;;;;;;;17.64;66.63;99389.91;5087609;28;20381;-64
2022/07/26 10:24:00;;;;;;;0.30;0.30;;;;;;;17.68;65.97;99408.97;5087242;28;20335;-65
2022/07/26 10:26:31;;;;;;;0.20;0.20;;;;;;;17.53;68.94;99414.09;5085676;28;20052;-65
2022/07/26 10:29:18;;;;;;;0.30;0.30;;;;;;;17.31;65.64;99415.25;5087345;28;20024;-64
2022/07/26 10:31:47;;;;;;;0.20;0.20;;;;;;;17.21;66.47;99417.50;5086829;28;20090;-64
2022/07/26 10:34:42;;;;;;;0.20;0.20;;;;;;;17.17;64.26;99415.94;5087199;28;20028;-64
2022/07/26 10:37:20;;;;;;;0.20;0.20;;;;;;;17.88;68.47;99415.75;5082003;28;20032;-65
2022/07/26 10:39:45;;;;;;;0.20;0.20;;;;;;;19.11;68.93;99404.47;5087123;28;20474;-65
2022/07/26 10:42:11;;;;;;;0.20;0.20;;;;;;;19.39;64.13;99413.34;5087072;28;20472;-65
2022/07/26 10:44:40;;;;;;;0.20;0.20;;;;;;;19.22;66.08;99417.81;5087206;28;20042;-64
2022/07/26 10:47:06;;;;;;;0.20;0.20;;;;;;;19.10;66.11;99429.09;5087045;28;20024;-64
2022/07/26 10:49:39;;;;;;;0.75;0.75;;;;;;;19.88;68.92;99425.22;5085620;28;20123;-64
2022/07/26 10:52:13;;;;;;;0.20;0.20;;;;;;;20.74;64.42;99422.38;5086463;28;20029;-64
2022/07/26 10:55:05;;;;;;;0.20;0.20;;;;;;;20.31;64.82;99426.06;5086832;28;20060;-65
2022/07/26 10:57:39;;;;;;;0.20;0.20;;;;;;;19.65;63.88;99418.78;5086882;28;20025;-64
2022/07/26 11:00:18;;;;;;;0.40;0.40;;;;;;;19.06;64.41;99437.13;5086776;28;20028;-64
2022/07/26 11:02:48;;;;;;;0.20;0.20;;;;;;;18.66;66.10;99442.09;5086460;28;20028;-64
2022/07/26 11:05:16;;;;;;;0.20;0.20;;;;;;;18.54;65.09;99434.00;5086733;28;20472;-64
2022/07/26 11:07:56;;;;;;;0.20;0.20;;;;;;;18.64;64.87;99438.75;5086690;28;20024;-65
2022/07/26 11:10:33;;;;;;;0.20;0.20;;;;;;;18.64;64.82;99441.38;5086476;28;20021;-65
2022/07/26 11:12:58;;;;;;;0.20;0.20;;;;;;;18.45;63.45;99442.44;5086394;28;20056;-64
2022/07/26 11:15:24;;;;;;;0.95;0.93;;;;;;;18.11;63.88;99446.91;5086128;28;20029;-65
2022/07/26 11:17:49;;;;;;;0.20;0.20;;;;;;;17.92;65.98;99448.75;5086101;28;20372;-64
2022/07/26 11:20:24;;;;;;;0.20;0.20;;;;;;;17.78;67.36;99453.94;5086144;28;20021;-65
2022/07/26 11:22:49;;;;;;;0.20;0.20;;;;;;;17.74;68.33;99453.25;5086399;28;20070;-64
2022/07/26 11:25:20;;;;;;;0.20;0.20;;;;;;;17.75;67.35;99438.34;5086616;28;20414;-64
2022/07/26 11:28:03;;;;;;;0.20;0.20;;;;;;;17.71;66.03;99451.66;5086173;28;20484;-64
2022/07/26 11:30:29;;;;;;;0.20;0.20;;;;;;;17.55;64.36;99453.38;5086114;28;20028;-65